sensor_id;sensor_type;location;lat;lon;timestamp;P1;durP1;ratioP1;P2;durP2;ratioP2
51465;SDS011;37542;50.164;9.086;2022-08-26T00:01:27;5.10;;;4.07;;
51465;SDS011;37542;50.164;9.086;2022-08-26T00:05:19;5.68;;;4.10;;
51465;SDS011;37542;50.164;9.086;2022-08-26T00:09:03;3.92;;;3.10;;
51465;SDS011;37542;50.164;9.086;2022-08-26T00:12:48;5.50;;;3.93;;
51465;SDS011;37542;50.164;9.086;2022-08-26T00:16:30;5.60;;;3.85;;
51465;SDS011;37542;50.164;9.086;2022-08-26T00:20:12;4.80;;;4.03;;
51465;SDS011;37542;50.164;9.086;2022-08-26T00:24:09;10.73;;;4.10;;
51465;SDS011;37542;50.164;9.086;2022-08-26T00:27:50;5.35;;;3.83;;
51465;SDS011;37542;50.164;9.086;2022-08-26T00:31:31;5.28;;;4.05;;
51465;SDS011;37542;50.164;9.086;2022-08-26T00:35:15;6.85;;;4.28;;
51465;SDS011;37542;50.164;9.086;2022-08-26T00:39:00;5.85;;;3.65;;
51465;SDS011;37542;50.164;9.086;2022-08-26T00:42:41;4.75;;;3.80;;
51465;SDS011;37542;50.164;9.086;2022-08-26T00:46:29;4.63;;;3.95;;
51465;SDS011;37542;50.164;9.086;2022-08-26T00:50:19;4.93;;;3.97;;
51465;SDS011;37542;50.164;9.086;2022-08-26T00:54:10;4.93;;;3.97;;
51465;SDS011;37542;50.164;9.086;2022-08-26T00:57:54;7.10;;;4.00;;
51465;SDS011;37542;50.164;9.086;2022-08-26T01:01:36;6.18;;;3.90;;
51465;SDS011;37542;50.164;9.086;2022-08-26T01:05:21;5.80;;;4.00;;
51465;SDS011;37542;50.164;9.086;2022-08-26T01:09:03;8.63;;;3.92;;
51465;SDS011;37542;50.164;9.086;2022-08-26T01:12:48;4.78;;;3.80;;
51465;SDS011;37542;50.164;9.086;2022-08-26T01:16:44;4.35;;;3.78;;
51465;SDS011;37542;50.164;9.086;2022-08-26T01:24:22;4.40;;;3.65;;
51465;SDS011;37542;50.164;9.086;2022-08-26T01:28:08;6.55;;;4.05;;
51465;SDS011;37542;50.164;9.086;2022-08-26T01:31:56;7.13;;;3.97;;
51465;SDS011;37542;50.164;9.086;2022-08-26T01:35:38;4.18;;;3.67;;
51465;SDS011;37542;50.164;9.086;2022-08-26T01:39:24;4.65;;;3.58;;
51465;SDS011;37542;50.164;9.086;2022-08-26T01:43:09;4.00;;;3.50;;
51465;SDS011;37542;50.164;9.086;2022-08-26T01:47:02;4.63;;;3.90;;
51465;SDS011;37542;50.164;9.086;2022-08-26T01:50:50;5.28;;;3.90;;
51465;SDS011;37542;50.164;9.086;2022-08-26T01:54:32;5.30;;;4.15;;
51465;SDS011;37542;50.164;9.086;2022-08-26T01:58:20;5.05;;;4.00;;
51465;SDS011;37542;50.164;9.086;2022-08-26T02:02:09;4.35;;;3.88;;
51465;SDS011;37542;50.164;9.086;2022-08-26T02:05:52;4.20;;;3.70;;
51465;SDS011;37542;50.164;9.086;2022-08-26T02:09:45;7.00;;;4.03;;
51465;SDS011;37542;50.164;9.086;2022-08-26T02:13:30;6.13;;;4.05;;
51465;SDS011;37542;50.164;9.086;2022-08-26T02:17:16;4.78;;;3.85;;
51465;SDS011;37542;50.164;9.086;2022-08-26T02:21:08;5.15;;;4.13;;
51465;SDS011;37542;50.164;9.086;2022-08-26T02:24:53;5.93;;;4.25;;
51465;SDS011;37542;50.164;9.086;2022-08-26T02:29:02;4.80;;;3.80;;
51465;SDS011;37542;50.164;9.086;2022-08-26T02:32:50;4.50;;;3.78;;
51465;SDS011;37542;50.164;9.086;2022-08-26T02:36:32;5.03;;;4.13;;
51465;SDS011;37542;50.164;9.086;2022-08-26T02:40:13;4.82;;;3.95;;
51465;SDS011;37542;50.164;9.086;2022-08-26T02:43:57;6.32;;;4.45;;
51465;SDS011;37542;50.164;9.086;2022-08-26T02:47:38;4.57;;;3.65;;
51465;SDS011;37542;50.164;9.086;2022-08-26T02:51:19;6.07;;;4.40;;
51465;SDS011;37542;50.164;9.086;2022-08-26T02:55:00;6.53;;;4.90;;
51465;SDS011;37542;50.164;9.086;2022-08-26T02:58:42;5.13;;;4.05;;
51465;SDS011;37542;50.164;9.086;2022-08-26T03:02:23;5.38;;;4.30;;
51465;SDS011;37542;50.164;9.086;2022-08-26T03:06:04;5.35;;;4.18;;
51465;SDS011;37542;50.164;9.086;2022-08-26T03:09:45;4.63;;;3.67;;
51465;SDS011;37542;50.164;9.086;2022-08-26T03:13:26;4.57;;;3.53;;
51465;SDS011;37542;50.164;9.086;2022-08-26T03:17:07;4.78;;;4.28;;
51465;SDS011;37542;50.164;9.086;2022-08-26T03:20:51;4.75;;;4.25;;
51465;SDS011;37542;50.164;9.086;2022-08-26T03:24:32;5.07;;;4.15;;
51465;SDS011;37542;50.164;9.086;2022-08-26T03:28:13;6.57;;;4.13;;
51465;SDS011;37542;50.164;9.086;2022-08-26T03:31:54;4.63;;;4.03;;
51465;SDS011;37542;50.164;9.086;2022-08-26T03:35:37;4.00;;;3.42;;
51465;SDS011;37542;50.164;9.086;2022-08-26T03:39:21;6.03;;;4.03;;
51465;SDS011;37542;50.164;9.086;2022-08-26T03:43:03;6.18;;;4.60;;
51465;SDS011;37542;50.164;9.086;2022-08-26T03:46:46;5.53;;;4.10;;
51465;SDS011;37542;50.164;9.086;2022-08-26T03:50:30;4.95;;;4.40;;
51465;SDS011;37542;50.164;9.086;2022-08-26T03:54:12;5.10;;;4.28;;
51465;SDS011;37542;50.164;9.086;2022-08-26T03:57:54;5.03;;;4.40;;
51465;SDS011;37542;50.164;9.086;2022-08-26T04:01:35;7.63;;;4.60;;
51465;SDS011;37542;50.164;9.086;2022-08-26T04:05:16;5.30;;;4.47;;
51465;SDS011;37542;50.164;9.086;2022-08-26T04:09:02;5.85;;;4.63;;
51465;SDS011;37542;50.164;9.086;2022-08-26T04:12:50;5.40;;;4.50;;
51465;SDS011;37542;50.164;9.086;2022-08-26T04:16:34;5.03;;;4.53;;
51465;SDS011;37542;50.164;9.086;2022-08-26T04:20:15;6.07;;;4.68;;
51465;SDS011;37542;50.164;9.086;2022-08-26T04:23:57;5.38;;;4.72;;
51465;SDS011;37542;50.164;9.086;2022-08-26T04:27:38;5.65;;;4.00;;
51465;SDS011;37542;50.164;9.086;2022-08-26T04:31:19;7.30;;;4.57;;
51465;SDS011;37542;50.164;9.086;2022-08-26T04:35:01;7.38;;;4.90;;
51465;SDS011;37542;50.164;9.086;2022-08-26T04:38:49;7.80;;;4.68;;
51465;SDS011;37542;50.164;9.086;2022-08-26T04:42:50;4.70;;;3.90;;
51465;SDS011;37542;50.164;9.086;2022-08-26T04:46:48;5.68;;;4.47;;
51465;SDS011;37542;50.164;9.086;2022-08-26T04:50:47;5.55;;;4.50;;
51465;SDS011;37542;50.164;9.086;2022-08-26T04:54:30;5.38;;;4.50;;
51465;SDS011;37542;50.164;9.086;2022-08-26T04:58:14;4.95;;;4.45;;
51465;SDS011;37542;50.164;9.086;2022-08-26T05:01:58;6.97;;;4.45;;
51465;SDS011;37542;50.164;9.086;2022-08-26T05:05:41;7.13;;;4.68;;
51465;SDS011;37542;50.164;9.086;2022-08-26T05:09:23;7.97;;;5.28;;
51465;SDS011;37542;50.164;9.086;2022-08-26T05:13:04;6.45;;;4.70;;
51465;SDS011;37542;50.164;9.086;2022-08-26T05:16:45;8.13;;;5.38;;
51465;SDS011;37542;50.164;9.086;2022-08-26T05:20:29;6.53;;;5.10;;
51465;SDS011;37542;50.164;9.086;2022-08-26T05:24:20;7.30;;;4.43;;
51465;SDS011;37542;50.164;9.086;2022-08-26T05:37:09;4.97;;;3.80;;
51465;SDS011;37542;50.164;9.086;2022-08-26T05:40:50;8.55;;;4.90;;
51465;SDS011;37542;50.164;9.086;2022-08-26T05:44:50;6.45;;;5.13;;
51465;SDS011;37542;50.164;9.086;2022-08-26T05:53:32;5.03;;;4.20;;
51465;SDS011;37542;50.164;9.086;2022-08-26T05:57:14;5.95;;;4.38;;
51465;SDS011;37542;50.164;9.086;2022-08-26T06:00:56;6.85;;;4.80;;
51465;SDS011;37542;50.164;9.086;2022-08-26T06:04:53;7.95;;;4.78;;
51465;SDS011;37542;50.164;9.086;2022-08-26T06:08:34;8.00;;;4.68;;
51465;SDS011;37542;50.164;9.086;2022-08-26T06:12:19;7.18;;;4.78;;
51465;SDS011;37542;50.164;9.086;2022-08-26T06:16:02;8.57;;;4.88;;
51465;SDS011;37542;50.164;9.086;2022-08-26T06:19:48;7.47;;;4.93;;
51465;SDS011;37542;50.164;9.086;2022-08-26T06:27:35;8.07;;;4.88;;
51465;SDS011;37542;50.164;9.086;2022-08-26T06:57:50;8.70;;;5.18;;
51465;SDS011;37542;50.164;9.086;2022-08-26T07:01:33;6.75;;;4.68;;
51465;SDS011;37542;50.164;9.086;2022-08-26T07:05:35;5.63;;;4.70;;
51465;SDS011;37542;50.164;9.086;2022-08-26T07:09:15;7.85;;;5.00;;
51465;SDS011;37542;50.164;9.086;2022-08-26T07:13:00;8.43;;;4.93;;
51465;SDS011;37542;50.164;9.086;2022-08-26T07:16:41;6.75;;;4.82;;
51465;SDS011;37542;50.164;9.086;2022-08-26T07:20:21;8.18;;;4.88;;
51465;SDS011;37542;50.164;9.086;2022-08-26T07:24:02;7.32;;;5.00;;
51465;SDS011;37542;50.164;9.086;2022-08-26T07:27:43;8.75;;;5.32;;
51465;SDS011;37542;50.164;9.086;2022-08-26T07:31:25;7.25;;;4.57;;
51465;SDS011;37542;50.164;9.086;2022-08-26T07:35:25;8.45;;;4.90;;
51465;SDS011;37542;50.164;9.086;2022-08-26T07:39:06;6.60;;;4.78;;
51465;SDS011;37542;50.164;9.086;2022-08-26T07:42:47;5.97;;;4.82;;
51465;SDS011;37542;50.164;9.086;2022-08-26T07:46:28;8.68;;;5.22;;
51465;SDS011;37542;50.164;9.086;2022-08-26T07:50:09;7.10;;;5.10;;
51465;SDS011;37542;50.164;9.086;2022-08-26T07:54:21;7.85;;;4.63;;
51465;SDS011;37542;50.164;9.086;2022-08-26T07:58:02;6.00;;;4.18;;
51465;SDS011;37542;50.164;9.086;2022-08-26T08:01:44;5.80;;;4.45;;
51465;SDS011;37542;50.164;9.086;2022-08-26T08:05:28;10.23;;;5.13;;
51465;SDS011;37542;50.164;9.086;2022-08-26T08:09:12;7.97;;;4.82;;
51465;SDS011;37542;50.164;9.086;2022-08-26T08:13:11;7.13;;;5.10;;
51465;SDS011;37542;50.164;9.086;2022-08-26T08:16:52;8.52;;;4.63;;
51465;SDS011;37542;50.164;9.086;2022-08-26T08:20:33;8.68;;;4.95;;
51465;SDS011;37542;50.164;9.086;2022-08-26T08:24:14;6.38;;;4.60;;
51465;SDS011;37542;50.164;9.086;2022-08-26T08:27:55;5.82;;;4.70;;
51465;SDS011;37542;50.164;9.086;2022-08-26T08:31:39;6.60;;;5.18;;
51465;SDS011;37542;50.164;9.086;2022-08-26T08:35:34;8.67;;;4.83;;
51465;SDS011;37542;50.164;9.086;2022-08-26T08:39:18;8.63;;;5.13;;
51465;SDS011;37542;50.164;9.086;2022-08-26T08:47:38;6.70;;;5.38;;
51465;SDS011;37542;50.164;9.086;2022-08-26T08:51:34;8.18;;;5.30;;
51465;SDS011;37542;50.164;9.086;2022-08-26T08:55:39;6.53;;;4.47;;
51465;SDS011;37542;50.164;9.086;2022-08-26T09:09:15;8.90;;;5.28;;
51465;SDS011;37542;50.164;9.086;2022-08-26T09:13:29;6.97;;;5.07;;
51465;SDS011;37542;50.164;9.086;2022-08-26T09:22:04;8.32;;;5.10;;
51465;SDS011;37542;50.164;9.086;2022-08-26T09:30:26;6.72;;;4.63;;
51465;SDS011;37542;50.164;9.086;2022-08-26T09:38:00;8.32;;;5.13;;
51465;SDS011;37542;50.164;9.086;2022-08-26T09:58:52;6.85;;;4.53;;
51465;SDS011;37542;50.164;9.086;2022-08-26T10:10:54;7.20;;;4.65;;
51465;SDS011;37542;50.164;9.086;2022-08-26T10:14:56;7.50;;;5.57;;
51465;SDS011;37542;50.164;9.086;2022-08-26T10:26:47;7.10;;;4.87;;
51465;SDS011;37542;50.164;9.086;2022-08-26T10:30:46;6.47;;;4.70;;
51465;SDS011;37542;50.164;9.086;2022-08-26T10:45:56;7.80;;;4.65;;
51465;SDS011;37542;50.164;9.086;2022-08-26T11:08:46;6.05;;;4.53;;
51465;SDS011;37542;50.164;9.086;2022-08-26T11:13:00;6.72;;;4.30;;
51465;SDS011;37542;50.164;9.086;2022-08-26T11:17:15;6.82;;;4.50;;
51465;SDS011;37542;50.164;9.086;2022-08-26T11:41:10;6.38;;;4.45;;
51465;SDS011;37542;50.164;9.086;2022-08-26T11:54:37;8.30;;;4.63;;
51465;SDS011;37542;50.164;9.086;2022-08-26T11:58:20;5.85;;;4.38;;
51465;SDS011;37542;50.164;9.086;2022-08-26T12:02:13;5.85;;;3.90;;
51465;SDS011;37542;50.164;9.086;2022-08-26T12:10:29;7.53;;;4.18;;
51465;SDS011;37542;50.164;9.086;2022-08-26T12:14:24;5.20;;;4.00;;
51465;SDS011;37542;50.164;9.086;2022-08-26T12:22:41;5.10;;;3.90;;
51465;SDS011;37542;50.164;9.086;2022-08-26T12:31:42;4.75;;;3.72;;
51465;SDS011;37542;50.164;9.086;2022-08-26T12:36:34;5.78;;;3.90;;
51465;SDS011;37542;50.164;9.086;2022-08-26T13:44:50;5.25;;;3.55;;
51465;SDS011;37542;50.164;9.086;2022-08-26T13:48:45;6.90;;;3.70;;
51465;SDS011;37542;50.164;9.086;2022-08-26T13:52:33;4.28;;;3.45;;
51465;SDS011;37542;50.164;9.086;2022-08-26T13:56:33;6.28;;;3.47;;
51465;SDS011;37542;50.164;9.086;2022-08-26T14:14:56;5.28;;;4.20;;
51465;SDS011;37542;50.164;9.086;2022-08-26T14:18:50;6.68;;;4.47;;
51465;SDS011;37542;50.164;9.086;2022-08-26T14:23:10;8.32;;;4.63;;
51465;SDS011;37542;50.164;9.086;2022-08-26T15:07:26;10.43;;;4.55;;
51465;SDS011;37542;50.164;9.086;2022-08-26T15:15:38;7.00;;;3.80;;
51465;SDS011;37542;50.164;9.086;2022-08-26T15:24:23;5.10;;;3.35;;
51465;SDS011;37542;50.164;9.086;2022-08-26T15:49:42;4.43;;;3.45;;
51465;SDS011;37542;50.164;9.086;2022-08-26T15:58:15;4.70;;;3.40;;
51465;SDS011;37542;50.164;9.086;2022-08-26T16:11:27;5.00;;;4.03;;
51465;SDS011;37542;50.164;9.086;2022-08-26T16:15:09;6.03;;;3.58;;
51465;SDS011;37542;50.164;9.086;2022-08-26T16:45:08;4.57;;;3.42;;
51465;SDS011;37542;50.164;9.086;2022-08-26T16:49:32;5.28;;;3.00;;
51465;SDS011;37542;50.164;9.086;2022-08-26T17:31:18;7.15;;;5.40;;
51465;SDS011;37542;50.164;9.086;2022-08-26T17:39:04;7.65;;;6.63;;
51465;SDS011;37542;50.164;9.086;2022-08-26T17:46:45;11.05;;;9.95;;
51465;SDS011;37542;50.164;9.086;2022-08-26T17:50:36;12.32;;;10.60;;
51465;SDS011;37542;50.164;9.086;2022-08-26T18:03:28;15.02;;;11.88;;
51465;SDS011;37542;50.164;9.086;2022-08-26T18:07:12;15.00;;;13.48;;
51465;SDS011;37542;50.164;9.086;2022-08-26T18:15:13;13.68;;;12.32;;
51465;SDS011;37542;50.164;9.086;2022-08-26T18:18:56;12.98;;;11.68;;
51465;SDS011;37542;50.164;9.086;2022-08-26T18:22:42;12.35;;;11.10;;
51465;SDS011;37542;50.164;9.086;2022-08-26T18:31:15;12.40;;;10.43;;
51465;SDS011;37542;50.164;9.086;2022-08-26T18:35:00;12.73;;;10.05;;
51465;SDS011;37542;50.164;9.086;2022-08-26T18:38:42;12.77;;;9.35;;
51465;SDS011;37542;50.164;9.086;2022-08-26T18:42:32;10.43;;;8.90;;
51465;SDS011;37542;50.164;9.086;2022-08-26T18:46:16;8.93;;;7.28;;
51465;SDS011;37542;50.164;9.086;2022-08-26T18:50:00;11.77;;;9.07;;
51465;SDS011;37542;50.164;9.086;2022-08-26T18:58:15;9.68;;;8.25;;
51465;SDS011;37542;50.164;9.086;2022-08-26T19:05:46;11.88;;;9.63;;
51465;SDS011;37542;50.164;9.086;2022-08-26T19:09:27;10.90;;;9.80;;
51465;SDS011;37542;50.164;9.086;2022-08-26T19:13:12;11.95;;;9.63;;
51465;SDS011;37542;50.164;9.086;2022-08-26T19:16:53;10.75;;;9.15;;
51465;SDS011;37542;50.164;9.086;2022-08-26T19:20:38;10.25;;;8.98;;
51465;SDS011;37542;50.164;9.086;2022-08-26T19:24:24;11.27;;;9.02;;
51465;SDS011;37542;50.164;9.086;2022-08-26T19:28:06;11.93;;;9.88;;
51465;SDS011;37542;50.164;9.086;2022-08-26T19:31:49;10.02;;;8.98;;
51465;SDS011;37542;50.164;9.086;2022-08-26T19:35:36;8.73;;;7.90;;
51465;SDS011;37542;50.164;9.086;2022-08-26T19:39:36;12.63;;;10.40;;
51465;SDS011;37542;50.164;9.086;2022-08-26T19:47:24;20.35;;;12.93;;
51465;SDS011;37542;50.164;9.086;2022-08-26T19:51:07;22.05;;;13.27;;
51465;SDS011;37542;50.164;9.086;2022-08-26T19:54:59;11.45;;;9.40;;
51465;SDS011;37542;50.164;9.086;2022-08-26T19:58:41;12.32;;;10.25;;
51465;SDS011;37542;50.164;9.086;2022-08-26T20:02:32;10.27;;;9.23;;
51465;SDS011;37542;50.164;9.086;2022-08-26T20:06:25;12.93;;;9.93;;
51465;SDS011;37542;50.164;9.086;2022-08-26T20:10:06;11.02;;;9.57;;
51465;SDS011;37542;50.164;9.086;2022-08-26T20:13:51;12.32;;;10.65;;
51465;SDS011;37542;50.164;9.086;2022-08-26T20:17:40;13.77;;;10.55;;
51465;SDS011;37542;50.164;9.086;2022-08-26T20:21:30;13.30;;;11.20;;
51465;SDS011;37542;50.164;9.086;2022-08-26T20:25:14;10.48;;;9.38;;
51465;SDS011;37542;50.164;9.086;2022-08-26T20:29:02;13.60;;;11.02;;
51465;SDS011;37542;50.164;9.086;2022-08-26T20:32:45;11.25;;;8.05;;
51465;SDS011;37542;50.164;9.086;2022-08-26T20:36:28;15.05;;;11.93;;
51465;SDS011;37542;50.164;9.086;2022-08-26T20:40:10;10.07;;;9.05;;
51465;SDS011;37542;50.164;9.086;2022-08-26T20:43:53;12.25;;;10.02;;
51465;SDS011;37542;50.164;9.086;2022-08-26T20:47:35;11.90;;;10.55;;
51465;SDS011;37542;50.164;9.086;2022-08-26T20:51:16;9.20;;;8.30;;
51465;SDS011;37542;50.164;9.086;2022-08-26T20:55:02;11.75;;;10.57;;
51465;SDS011;37542;50.164;9.086;2022-08-26T20:58:43;11.82;;;10.63;;
51465;SDS011;37542;50.164;9.086;2022-08-26T21:02:27;12.43;;;10.13;;
51465;SDS011;37542;50.164;9.086;2022-08-26T21:06:16;11.05;;;9.90;;
51465;SDS011;37542;50.164;9.086;2022-08-26T21:09:58;11.50;;;10.23;;
51465;SDS011;37542;50.164;9.086;2022-08-26T21:13:51;10.73;;;9.63;;
51465;SDS011;37542;50.164;9.086;2022-08-26T21:17:35;12.18;;;10.35;;
51465;SDS011;37542;50.164;9.086;2022-08-26T21:21:20;10.45;;;9.40;;
51465;SDS011;37542;50.164;9.086;2022-08-26T21:25:10;12.20;;;9.88;;
51465;SDS011;37542;50.164;9.086;2022-08-26T21:28:52;13.88;;;12.48;;
51465;SDS011;37542;50.164;9.086;2022-08-26T21:32:36;15.70;;;11.93;;
51465;SDS011;37542;50.164;9.086;2022-08-26T21:36:17;13.15;;;11.77;;
51465;SDS011;37542;50.164;9.086;2022-08-26T21:39:59;17.52;;;11.95;;
51465;SDS011;37542;50.164;9.086;2022-08-26T21:43:44;11.95;;;10.73;;
51465;SDS011;37542;50.164;9.086;2022-08-26T21:47:26;11.15;;;9.95;;
51465;SDS011;37542;50.164;9.086;2022-08-26T21:51:09;12.07;;;10.88;;
51465;SDS011;37542;50.164;9.086;2022-08-26T21:54:59;12.32;;;11.13;;
51465;SDS011;37542;50.164;9.086;2022-08-26T21:58:41;11.90;;;10.70;;
51465;SDS011;37542;50.164;9.086;2022-08-26T22:02:23;8.95;;;8.00;;
51465;SDS011;37542;50.164;9.086;2022-08-26T22:06:04;11.82;;;10.60;;
51465;SDS011;37542;50.164;9.086;2022-08-26T22:09:45;14.13;;;10.57;;
51465;SDS011;37542;50.164;9.086;2022-08-26T22:13:28;12.10;;;10.90;;
51465;SDS011;37542;50.164;9.086;2022-08-26T22:17:13;11.95;;;10.73;;
51465;SDS011;37542;50.164;9.086;2022-08-26T22:20:58;11.75;;;10.55;;
51465;SDS011;37542;50.164;9.086;2022-08-26T22:24:42;13.30;;;11.70;;
51465;SDS011;37542;50.164;9.086;2022-08-26T22:28:23;12.13;;;10.82;;
51465;SDS011;37542;50.164;9.086;2022-08-26T22:32:13;12.07;;;9.90;;
51465;SDS011;37542;50.164;9.086;2022-08-26T22:35:53;13.35;;;11.48;;
51465;SDS011;37542;50.164;9.086;2022-08-26T22:39:34;12.50;;;11.30;;
51465;SDS011;37542;50.164;9.086;2022-08-26T22:43:17;11.77;;;10.57;;
51465;SDS011;37542;50.164;9.086;2022-08-26T22:46:58;11.80;;;10.60;;
51465;SDS011;37542;50.164;9.086;2022-08-26T22:50:39;15.75;;;13.40;;
51465;SDS011;37542;50.164;9.086;2022-08-26T22:54:25;12.00;;;10.73;;
51465;SDS011;37542;50.164;9.086;2022-08-26T22:58:06;13.50;;;10.30;;
51465;SDS011;37542;50.164;9.086;2022-08-26T23:01:48;13.43;;;12.00;;
51465;SDS011;37542;50.164;9.086;2022-08-26T23:05:29;12.18;;;10.95;;
51465;SDS011;37542;50.164;9.086;2022-08-26T23:09:10;12.98;;;11.68;;
51465;SDS011;37542;50.164;9.086;2022-08-26T23:12:51;10.60;;;9.50;;
51465;SDS011;37542;50.164;9.086;2022-08-26T23:16:33;11.15;;;10.05;;
51465;SDS011;37542;50.164;9.086;2022-08-26T23:20:20;11.70;;;10.32;;
51465;SDS011;37542;50.164;9.086;2022-08-26T23:24:01;12.30;;;9.65;;
51465;SDS011;37542;50.164;9.086;2022-08-26T23:27:42;12.90;;;11.60;;
51465;SDS011;37542;50.164;9.086;2022-08-26T23:31:23;12.02;;;10.68;;
51465;SDS011;37542;50.164;9.086;2022-08-26T23:35:04;13.40;;;10.63;;
51465;SDS011;37542;50.164;9.086;2022-08-26T23:38:46;11.00;;;9.40;;
51465;SDS011;37542;50.164;9.086;2022-08-26T23:42:27;12.48;;;10.13;;
51465;SDS011;37542;50.164;9.086;2022-08-26T23:46:08;11.75;;;10.15;;
51465;SDS011;37542;50.164;9.086;2022-08-26T23:49:48;10.40;;;9.30;;
51465;SDS011;37542;50.164;9.086;2022-08-26T23:53:29;10.68;;;9.20;;
51465;SDS011;37542;50.164;9.086;2022-08-26T23:57:10;8.48;;;7.18;;
